Time;durP1;ratioP1;P1;durP2;ratioP2;P2;SDS_P1;SDS_P2;PMS_P1;PMS_P2;Temp;Humidity;BMP_temperature;BMP_pressure;BME280_temperature;BME280_humidity;BME280_pressure;Samples;Min_cycle;Max_cycle;Signal;HPM_P1;HPM_P2
2022/07/07 00:01:11;;;;;;;1.90;0.98;;;18.30;99.90;;;;;;20895969;28;20496;-84
2022/07/07 00:11:14;;;;;;;2.00;1.00;;;18.30;99.90;;;;;;20919585;28;20075;-84
2022/07/07 00:21:16;;;;;;;2.08;0.60;;;18.30;99.90;;;;;;20900325;28;20068;-83
2022/07/07 00:31:17;;;;;;;2.92;0.82;;;18.30;99.90;;;;;;20868174;28;20408;-84
2022/07/07 00:41:18;;;;;;;3.65;1.75;;;18.40;99.90;;;;;;20873086;28;20051;-84
2022/07/07 00:51:19;;;;;;;1.13;0.45;;;18.50;99.90;;;;;;20868290;28;21017;-84
2022/07/07 01:01:20;;;;;;;1.35;0.40;;;18.50;99.90;;;;;;20878641;28;20029;-84
2022/07/07 01:11:21;;;;;;;1.10;0.40;;;18.70;99.90;;;;;;20860026;28;20048;-84
2022/07/07 01:21:28;;;;;;;0.70;0.30;;;18.70;99.90;;;;;;20868273;28;20527;-84
2022/07/07 01:31:29;;;;;;;2.28;0.15;;;18.70;99.90;;;;;;20885439;28;20388;-84
2022/07/07 01:41:31;;;;;;;0.43;0.13;;;18.50;99.90;;;;;;20881198;28;20056;-84
2022/07/07 01:51:35;;;;;;;0.73;0.32;;;18.10;99.90;;;;;;20877351;28;20275;-84
2022/07/07 02:01:36;;;;;;;0.70;0.20;;;17.80;99.90;;;;;;20881122;28;20503;-85
2022/07/07 02:11:37;;;;;;;1.00;0.40;;;17.60;99.90;;;;;;20892878;28;21026;-84
2022/07/07 02:21:38;;;;;;;1.08;0.30;;;17.60;99.90;;;;;;20879664;28;20760;-84
2022/07/07 02:31:40;;;;;;;0.68;0.30;;;17.60;99.90;;;;;;20898237;28;20286;-84
2022/07/07 02:41:41;;;;;;;1.05;0.40;;;17.50;99.90;;;;;;20895191;28;20084;-84
2022/07/07 02:51:44;;;;;;;1.65;0.70;;;17.40;99.90;;;;;;20892501;28;20464;-85
2022/07/07 03:01:45;;;;;;;1.58;0.50;;;17.20;99.90;;;;;;20884499;28;20067;-86
2022/07/07 03:11:46;;;;;;;1.50;0.57;;;17.00;99.90;;;;;;20880584;28;20048;-85
2022/07/07 03:21:47;;;;;;;1.00;0.40;;;17.10;99.90;;;;;;20894651;28;20043;-84
2022/07/07 03:31:48;;;;;;;2.63;1.08;;;17.00;99.90;;;;;;20869967;28;20044;-85
2022/07/07 03:41:49;;;;;;;2.75;0.50;;;16.80;99.90;;;;;;20868282;28;20053;-86
2022/07/07 03:51:51;;;;;;;1.00;0.20;;;16.70;99.90;;;;;;20862310;28;20063;-85
2022/07/07 04:01:52;;;;;;;0.80;0.32;;;16.70;99.90;;;;;;20892912;28;20044;-85
2022/07/07 04:11:53;;;;;;;3.03;1.05;;;16.60;99.90;;;;;;20887380;28;20036;-86
2022/07/07 04:21:58;;;;;;;0.88;0.20;;;16.70;99.90;;;;;;20871513;28;20036;-85
2022/07/07 04:31:59;;;;;;;0.95;0.40;;;16.70;99.90;;;;;;20891379;28;20045;-85
2022/07/07 04:42:00;;;;;;;0.85;0.30;;;16.70;99.90;;;;;;20823308;28;20052;-85
2022/07/07 04:52:01;;;;;;;1.23;0.30;;;16.60;99.90;;;;;;20831204;28;20405;-85
2022/07/07 05:02:03;;;;;;;0.90;0.30;;;16.50;99.90;;;;;;20814166;28;20102;-85
2022/07/07 05:12:04;;;;;;;2.03;0.60;;;16.50;99.90;;;;;;20835767;28;20037;-85
2022/07/07 05:22:05;;;;;;;1.25;0.50;;;16.60;99.90;;;;;;20844881;28;20476;-85
2022/07/07 05:32:07;;;;;;;6.28;0.68;;;16.50;99.90;;;;;;20825454;28;20041;-85
2022/07/07 05:42:08;;;;;;;1.95;0.22;;;16.60;99.90;;;;;;20811164;28;20449;-85
2022/07/07 05:52:09;;;;;;;1.63;0.30;;;16.70;99.90;;;;;;20818997;28;20052;-85
2022/07/07 06:02:12;;;;;;;7.38;0.38;;;16.30;99.90;;;;;;20817584;28;20055;-85
2022/07/07 06:12:14;;;;;;;0.47;0.13;;;16.60;99.90;;;;;;20795919;28;21054;-85
2022/07/07 06:22:16;;;;;;;3.08;1.75;;;17.20;99.90;;;;;;20800157;28;20033;-85
2022/07/07 06:32:17;;;;;;;2.03;0.22;;;17.20;99.90;;;;;;20820998;28;20041;-83
2022/07/07 06:42:18;;;;;;;1.45;0.30;;;17.10;99.90;;;;;;20816003;28;20429;-84
2022/07/07 06:52:19;;;;;;;1.77;0.40;;;17.00;99.90;;;;;;20831722;28;20044;-84
2022/07/07 07:02:20;;;;;;;1.00;0.38;;;17.00;99.90;;;;;;20819971;28;20049;-85
2022/07/07 07:12:21;;;;;;;1.45;0.50;;;16.90;99.90;;;;;;20820944;28;20060;-83
2022/07/07 07:22:23;;;;;;;1.55;0.40;;;17.30;99.90;;;;;;20832765;28;20048;-85
2022/07/07 07:32:24;;;;;;;0.85;0.20;;;17.10;99.90;;;;;;20833660;28;20052;-84
2022/07/07 07:42:28;;;;;;;1.77;0.50;;;17.20;99.90;;;;;;20816241;28;20049;-84
2022/07/07 07:52:30;;;;;;;0.90;0.22;;;17.30;99.90;;;;;;20819432;28;20049;-83
2022/07/07 08:02:31;;;;;;;6.03;0.50;;;17.90;99.90;;;;;;20820071;28;20506;-83
2022/07/07 08:12:32;;;;;;;1.33;0.43;;;18.00;99.90;;;;;;20831908;28;20064;-83
2022/07/07 08:22:33;;;;;;;0.22;0.05;;;17.90;99.90;;;;;;20851185;28;20045;-84
2022/07/07 08:32:34;;;;;;;1.08;0.32;;;17.90;99.90;;;;;;20826204;28;20048;-84
2022/07/07 08:42:36;;;;;;;0.57;0.20;;;18.00;99.90;;;;;;20847271;28;20056;-84
2022/07/07 08:52:38;;;;;;;0.63;0.20;;;18.30;99.90;;;;;;20850665;28;20374;-83
2022/07/07 09:02:40;;;;;;;1.52;0.10;;;18.10;99.90;;;;;;20833670;28;20408;-83
2022/07/07 09:12:41;;;;;;;0.43;0.20;;;17.80;99.90;;;;;;20844962;28;20037;-83
2022/07/07 09:22:56;;;;;;;0.50;0.20;;;18.10;99.90;;;;;;20838922;28;20095;-84
2022/07/07 09:33:00;;;;;;;0.38;0.20;;;18.20;99.90;;;;;;20838163;28;20045;-83
2022/07/07 09:43:04;;;;;;;1.40;0.40;;;18.00;99.90;;;;;;20848357;28;20139;-83
2022/07/07 09:53:08;;;;;;;1.42;0.30;;;18.50;99.90;;;;;;20823933;28;20041;-83
2022/07/07 10:03:10;;;;;;;1.23;0.40;;;18.20;99.90;;;;;;20855730;28;20037;-82
2022/07/07 10:13:11;;;;;;;1.17;0.38;;;18.40;99.90;;;;;;20847479;28;20045;-83
2022/07/07 10:23:12;;;;;;;1.67;0.40;;;18.10;99.90;;;;;;20848680;28;20039;-85
2022/07/07 10:33:13;;;;;;;4.72;0.50;;;18.20;99.90;;;;;;20823453;28;20041;-85
2022/07/07 10:43:29;;;;;;;1.27;0.30;;;18.20;99.90;;;;;;20877213;28;20515;-84
2022/07/07 10:53:31;;;;;;;1.75;0.50;;;17.70;99.90;;;;;;20878163;28;20498;-84
2022/07/07 11:03:36;;;;;;;1.17;0.32;;;17.90;99.90;;;;;;20894425;28;20036;-83
2022/07/07 11:13:39;;;;;;;2.17;0.30;;;18.00;99.90;;;;;;20895477;28;20041;-82
2022/07/07 11:23:47;;;;;;;1.20;0.70;;;17.60;99.90;;;;;;20907525;28;20047;-82
2022/07/07 11:33:52;;;;;;;1.45;0.20;;;17.60;99.90;;;;;;20894990;28;20369;-83
2022/07/07 11:43:55;;;;;;;1.35;0.40;;;17.50;99.90;;;;;;20846944;28;20037;-84
2022/07/07 11:53:58;;;;;;;6.30;0.85;;;17.50;99.90;;;;;;20835616;28;20048;-82
2022/07/07 12:04:11;;;;;;;13.25;3.30;;;18.10;99.90;;;;;;20868325;28;20459;-83
2022/07/07 12:14:13;;;;;;;1.98;0.70;;;18.20;99.90;;;;;;20869491;28;20037;-83
2022/07/07 12:24:21;;;;;;;1.00;0.32;;;18.20;99.90;;;;;;20835356;28;20380;-82
2022/07/07 12:34:24;;;;;;;1.67;0.47;;;18.60;99.90;;;;;;20842500;28;20067;-82
2022/07/07 12:44:32;;;;;;;1.10;0.60;;;18.70;99.90;;;;;;20869134;28;20041;-82
2022/07/07 12:54:33;;;;;;;2.20;0.97;;;18.70;99.90;;;;;;20861592;28;20565;-83
2022/07/07 13:04:34;;;;;;;1.33;0.50;;;19.10;99.90;;;;;;20862310;28;20457;-82
2022/07/07 13:14:35;;;;;;;1.38;0.50;;;18.70;99.90;;;;;;20843454;28;20045;-82
2022/07/07 13:24:36;;;;;;;1.77;0.55;;;19.20;99.90;;;;;;20834426;28;20045;-82
2022/07/07 13:34:37;;;;;;;2.97;0.65;;;19.40;99.90;;;;;;20831324;28;20059;-82
2022/07/07 13:44:39;;;;;;;3.67;1.48;;;19.10;99.90;;;;;;20828690;28;20041;-82
2022/07/07 13:54:42;;;;;;;4.60;0.38;;;19.20;99.90;;;;;;20848851;28;20521;-82
2022/07/07 14:04:44;;;;;;;3.95;1.20;;;19.00;99.90;;;;;;20830587;28;20034;-82
2022/07/07 14:14:45;;;;;;;1.27;0.63;;;18.90;99.90;;;;;;20833353;28;20079;-82
2022/07/07 14:24:47;;;;;;;1.77;0.82;;;18.90;99.90;;;;;;20845066;28;20048;-82
2022/07/07 14:34:48;;;;;;;1.00;0.38;;;18.70;99.90;;;;;;20850432;28;20041;-82
2022/07/07 14:44:49;;;;;;;1.50;0.70;;;18.70;99.90;;;;;;20892166;28;20037;-82
2022/07/07 14:54:50;;;;;;;2.53;0.63;;;18.80;99.90;;;;;;20885283;28;20404;-82
2022/07/07 15:04:51;;;;;;;0.80;0.40;;;18.60;99.90;;;;;;20925362;28;20063;-82
2022/07/07 15:14:54;;;;;;;0.93;0.50;;;18.30;99.90;;;;;;20905313;28;20041;-82
2022/07/07 15:24:55;;;;;;;1.45;0.47;;;18.20;99.90;;;;;;20913306;28;20044;-82
2022/07/07 15:34:57;;;;;;;1.73;0.77;;;18.30;99.90;;;;;;20869123;28;20059;-82
2022/07/07 15:44:58;;;;;;;1.67;0.45;;;18.40;99.90;;;;;;20877512;28;20516;-82
2022/07/07 15:55:00;;;;;;;2.80;0.43;;;18.30;99.90;;;;;;20885442;28;20465;-81
2022/07/07 16:05:01;;;;;;;2.00;0.60;;;18.30;99.90;;;;;;20895647;28;20037;-82
2022/07/07 16:15:02;;;;;;;1.27;0.40;;;18.10;99.90;;;;;;20884796;28;20131;-81
2022/07/07 16:25:06;;;;;;;1.17;0.40;;;18.00;99.90;;;;;;20911986;28;20094;-81
2022/07/07 16:35:10;;;;;;;1.02;0.30;;;18.20;99.90;;;;;;20921757;28;20061;-81
2022/07/07 16:45:11;;;;;;;1.35;0.57;;;18.10;99.90;;;;;;20937647;28;20033;-82
2022/07/07 16:55:12;;;;;;;1.45;0.47;;;17.90;99.90;;;;;;20926045;28;20049;-83
2022/07/07 17:05:13;;;;;;;1.58;0.50;;;17.90;99.90;;;;;;20910018;28;20036;-82
2022/07/07 17:15:14;;;;;;;1.88;0.60;;;17.90;99.90;;;;;;20923817;28;20052;-83
2022/07/07 17:25:15;;;;;;;1.08;0.50;;;17.80;99.90;;;;;;20941839;28;20044;-83
2022/07/07 17:35:18;;;;;;;1.27;0.50;;;17.70;99.90;;;;;;20947194;28;20051;-83
2022/07/07 17:45:21;;;;;;;1.65;0.50;;;17.60;99.90;;;;;;20905937;28;20525;-83
2022/07/07 17:55:22;;;;;;;2.45;0.52;;;17.50;99.90;;;;;;20916390;28;20045;-82
2022/07/07 18:05:23;;;;;;;5.15;0.57;;;17.40;99.90;;;;;;20908755;28;20057;-82
2022/07/07 18:15:24;;;;;;;1.27;0.52;;;17.30;99.90;;;;;;20908281;28;20044;-83
2022/07/07 18:25:25;;;;;;;2.63;1.15;;;17.10;99.90;;;;;;20898422;28;20045;-81
2022/07/07 18:35:27;;;;;;;1.42;0.50;;;17.00;99.90;;;;;;20920217;28;20111;-81
2022/07/07 18:45:28;;;;;;;1.85;0.50;;;17.00;99.90;;;;;;20916242;28;20040;-82
2022/07/07 18:55:29;;;;;;;4.65;0.65;;;16.90;99.90;;;;;;20894343;28;20048;-82
2022/07/07 19:05:30;;;;;;;1.88;0.50;;;16.70;99.90;;;;;;20899424;28;20047;-81
2022/07/07 19:15:31;;;;;;;1.50;0.68;;;16.70;99.90;;;;;;20901777;28;20506;-82
2022/07/07 19:25:33;;;;;;;1.73;0.43;;;16.60;99.90;;;;;;20870849;28;20047;-81
2022/07/07 19:35:34;;;;;;;2.72;0.70;;;16.60;99.90;;;;;;20895682;28;20068;-82
2022/07/07 19:45:44;;;;;;;1.30;0.60;;;16.50;99.90;;;;;;20885569;28;20037;-85
2022/07/07 19:55:47;;;;;;;1.92;0.55;;;16.50;99.90;;;;;;20884622;28;20044;-81
2022/07/07 20:05:48;;;;;;;2.30;0.43;;;16.40;99.90;;;;;;20956165;28;20165;-81
2022/07/07 20:15:49;;;;;;;1.40;0.50;;;16.40;99.90;;;;;;20921586;28;20427;-81
2022/07/07 20:25:50;;;;;;;2.42;0.47;;;16.40;99.90;;;;;;20911110;28;20044;-81
2022/07/07 20:35:51;;;;;;;1.00;0.40;;;16.30;99.90;;;;;;20928452;28;20476;-81
2022/07/07 20:45:53;;;;;;;1.02;0.40;;;16.30;99.90;;;;;;20900793;28;20488;-81
2022/07/07 20:55:55;;;;;;;3.22;0.60;;;16.30;99.90;;;;;;20907112;28;20044;-81
2022/07/07 21:05:56;;;;;;;0.98;0.35;;;16.20;99.90;;;;;;20913125;28;20070;-80
2022/07/07 21:15:58;;;;;;;1.30;0.45;;;16.20;99.90;;;;;;20912003;28;20040;-81
2022/07/07 21:25:59;;;;;;;0.68;0.28;;;16.10;99.90;;;;;;20904782;28;20041;-80
2022/07/07 21:36:00;;;;;;;0.57;0.20;;;16.10;99.90;;;;;;20892815;28;20058;-81
2022/07/07 21:46:01;;;;;;;0.68;0.20;;;16.10;99.90;;;;;;20900834;28;20045;-81
2022/07/07 21:56:02;;;;;;;3.85;1.05;;;16.10;99.90;;;;;;20908692;28;20059;-81
2022/07/07 22:16:24;;;;;;;2.00;0.47;;;15.90;99.90;;;;;;20927558;28;20055;-80
2022/07/07 22:26:25;;;;;;;5.28;0.55;;;15.90;99.90;;;;;;20903556;28;20040;-80
2022/07/07 22:36:30;;;;;;;0.90;0.50;;;15.80;99.90;;;;;;20906013;28;20052;-81
2022/07/07 22:46:31;;;;;;;0.90;0.40;;;15.80;99.90;;;;;;20915599;28;20234;-81
2022/07/07 22:56:32;;;;;;;0.60;0.25;;;15.80;99.90;;;;;;20901750;28;20035;-81
2022/07/07 23:06:33;;;;;;;0.55;0.25;;;15.70;99.90;;;;;;20912503;28;20094;-81
2022/07/07 23:16:34;;;;;;;1.08;0.20;;;15.70;99.90;;;;;;20926322;28;20391;-81
2022/07/07 23:26:37;;;;;;;0.80;0.30;;;15.70;99.90;;;;;;20905854;28;20063;-81
2022/07/07 23:36:38;;;;;;;0.65;0.20;;;15.60;99.90;;;;;;20924240;28;20056;-81
2022/07/07 23:46:39;;;;;;;0.90;0.30;;;15.60;99.90;;;;;;20912181;28;20041;-81
2022/07/07 23:56:40;;;;;;;1.17;0.47;;;15.50;99.90;;;;;;20921405;28;20057;-81
